• Join FlightAware (Why Join?)
  • Login
  • US Flag 
08:44AM EDT


 

Airport Tracker/Info


-or-


 

Live Flight TrackerFlight Track Log ✈ UAL5840 ✈ 22-Apr-2013 ✈ KORD - KLEX

Flight Track Log - Related Links

Times and Time Zones

All times are in EDT time to prevent confusion due to time zone crossing. See the UAL5840 flight status page for this flight to view local times or setup timezone preferences in your user account.

Time Position Orientation Groundspeed Altitude Reporting Facility
EDT Latitude Longitude Course Direction KTS MPH feet Rate Location/Type
05:10PM 41.9500 -87.9167 159° South 175 201 1,700  Level Chicago TRACON
05:11PM 41.8833 -87.9167 180° South 191 220 4,100 2,100 Climbing Chicago TRACON
05:13PM 41.7317 -87.6834 157° South  Level Estimated
05:14PM 41.6483 -87.6094 156° South  Level Estimated
05:14PM 41.7547 -87.8219 151° Southeast 256 295 8,800  Level Chicago Center
05:15PM 41.5487 -87.5963 174° South  Level FlightAware Approximate
05:15PM 41.6892 -87.7717 150° Southeast 268 308 10,900  Level Chicago Center
05:16PM 41.4658 -87.5213 159° South  Level Estimated
05:16PM 41.6192 -87.7200 151° Southeast 282 325 12,900  Level Chicago Center
05:17PM 41.5472 -87.6653 150° Southeast 294 338 14,100 840 Climbing Chicago Center
05:18PM 41.4656 -87.6017 150° Southeast 330 380 14,700 840 Climbing Chicago Center
05:19PM 41.3494 -87.5589 165° South 360 414 15,900 1,020 Climbing Chicago Center
05:20PM 41.2483 -87.5411 172° South 363 418 16,900 960 Climbing Chicago Center
05:21PM 41.1464 -87.5197 171° South 368 423 18,000 1,140 Climbing Chicago Center
05:22PM 41.0453 -87.4906 168° South 371 427 19,300 1,260 Climbing Chicago Center
05:23PM 40.9442 -87.4639 169° South 371 427 20,700 1,260 Climbing Chicago Center
05:24PM 40.8419 -87.4361 168° South 374 430 22,000 1,260 Climbing Chicago Center
05:25PM 40.7189 -87.4036 169° South 377 434 23,400 1,140 Climbing Chicago Center
05:26PM 40.6142 -87.3753 168° South 383 441 24,400 720 Climbing Chicago Center
05:27PM 40.5069 -87.3456 168° South 390 449 24,900 240 Climbing Chicago Center
05:28PM 40.3953 -87.3064 165° South 412 474 25,000  Climbing Chicago Center
05:29PM 40.2828 -87.2506 159° South 429 494 25,000  Level Chicago Center
05:30PM 40.1669 -87.1942 160° South 441 507 25,000  Level Chicago Center
05:31PM 40.0731 -87.1250 151° Southeast 455 524 25,000  Level Indianapolis Center
05:32PM 39.9644 -87.0383 149° Southeast 456 525 25,000  Level Indianapolis Center
05:33PM 39.8556 -86.9508 148° Southeast 458 527 25,000  Level Indianapolis Center
05:34PM 39.7464 -86.8625 148° Southeast 458 527 25,000  Level Indianapolis Center
05:35PM 39.6367 -86.7739 148° Southeast 459 528 25,000 -300 Level Indianapolis Center
05:36PM 39.5050 -86.6686 148° Southeast 461 531 24,500 -780 Descending Indianapolis Center
05:37PM 39.3964 -86.5819 148° Southeast 458 527 23,500 -780 Descending Indianapolis Center
05:38PM 39.3056 -86.4667 136° Southeast 461 531 23,000 -300 Descending Indianapolis Center
05:39PM 39.2164 -86.3492 134° Southeast 456 525 23,000  Level Indianapolis Center
05:40PM 39.1269 -86.2303 134° Southeast 458 527 23,000  Level Indianapolis Center
05:41PM 39.0386 -86.1142 134° Southeast 453 521 23,000 -60 Level Indianapolis Center
05:42PM 38.9489 -85.9969 135° Southeast 455 524 22,900 -600 Descending Indianapolis Center
05:43PM 38.8650 -85.8825 133° Southeast 443 510 21,800 -1,320 Descending Indianapolis Center
05:44PM 38.7878 -85.7608 129° Southeast 438 504 20,200 -1,680 Descending Indianapolis Center
05:45PM 38.6981 -85.6197 129° Southeast 425 489 18,400 -1,560 Descending Indianapolis Center
05:46PM 38.6236 -85.5058 130° Southeast 418 481 17,100 -1,440 Descending Indianapolis Center
05:48PM 38.5528 -85.3956 129° Southeast 402 463 15,500 -1,500 Descending Indianapolis Center
05:49PM 38.4831 -85.2872 129° Southeast 394 453 14,000 -1,500 Descending Indianapolis Center
05:50PM 38.4061 -85.1703 130° Southeast 399 459 12,400 -1,440 Descending Indianapolis Center
05:51PM 38.3394 -85.0664 129° Southeast 383 441 11,100 -780 Descending Indianapolis Center
05:52PM 38.2769 -84.9700 130° Southeast 359 413 10,800 -780 Descending Indianapolis Center
05:53PM 38.2408 -84.8736 115° Southeast 304 350 9,500 -1,500 Descending Indianapolis Center
05:54PM 38.2128 -84.7800 111° Southeast 289 333 7,700 -1,800 Descending Indianapolis Center
05:55PM 38.1808 -84.6778 112° Southeast 275 316 5,800 -1,680 Descending Indianapolis Center
05:56PM 38.1503 -84.5989 116° Southeast 262 302 4,300 -1,620 Descending Indianapolis Center
05:57PM 38.1128 -84.5456 132° Southeast 221 254 2,500 -1,800 Descending Indianapolis Center